createdAt,value
2023-05-12T00:00:49.698Z,12.94
2023-05-12T00:01:49.709Z,12.93
2023-05-12T00:02:49.717Z,12.93
2023-05-12T00:03:49.910Z,12.94
2023-05-12T00:04:49.736Z,12.98
2023-05-12T00:05:49.637Z,12.98
2023-05-12T00:06:49.639Z,12.98
2023-05-12T00:07:49.608Z,12.99
2023-05-12T00:08:49.591Z,12.99
2023-05-12T00:09:49.593Z,13.01
2023-05-12T00:10:49.565Z,13.01
2023-05-12T00:11:49.579Z,13.02
2023-05-12T00:12:49.549Z,13.02
2023-05-12T00:13:49.599Z,12.98
2023-05-12T00:14:49.515Z,12.99
2023-05-12T00:15:49.500Z,13.01
2023-05-12T00:16:49.645Z,13.01
2023-05-12T00:17:49.527Z,13.02
2023-05-12T00:18:49.476Z,13.03
2023-05-12T00:19:49.461Z,13.06
2023-05-12T00:20:49.447Z,13.06
2023-05-12T00:21:49.444Z,13.06
2023-05-12T00:22:49.389Z,13.08
2023-05-12T00:23:49.399Z,13.05
2023-05-12T00:24:49.380Z,13.06
2023-05-12T00:25:49.381Z,13.06
2023-05-12T00:26:49.363Z,13.08
2023-05-12T00:27:49.347Z,13.08
2023-05-12T00:28:49.310Z,13.08
2023-05-12T00:29:49.330Z,13.09
2023-05-12T00:30:49.307Z,13.02
2023-05-12T00:31:49.330Z,13.02
2023-05-12T00:32:49.334Z,13.01
2023-05-12T00:33:49.257Z,13.02
2023-05-12T00:34:49.240Z,13.01
2023-05-12T00:35:49.245Z,13.01
2023-05-12T00:36:49.223Z,13.01
2023-05-12T00:37:49.211Z,12.99
2023-05-12T00:38:49.203Z,12.95
2023-05-12T00:39:49.196Z,12.94
2023-05-12T00:40:49.168Z,12.93
2023-05-12T00:41:49.147Z,12.91
2023-05-12T00:42:49.132Z,12.93
2023-05-12T00:43:49.121Z,12.94
2023-05-12T00:44:49.134Z,12.94
2023-05-12T00:45:49.130Z,12.91
2023-05-12T00:46:49.083Z,12.93
2023-05-12T00:47:49.085Z,12.93
2023-05-12T00:48:49.054Z,12.94
2023-05-12T00:49:49.067Z,12.94
2023-05-12T00:50:49.045Z,12.94
2023-05-12T00:51:49.016Z,12.88
2023-05-12T00:52:49.003Z,12.87
2023-05-12T00:53:50.586Z,12.87
2023-05-12T00:54:48.992Z,12.90
2023-05-12T00:55:48.963Z,12.90
2023-05-12T00:56:48.955Z,12.90
2023-05-12T00:57:48.930Z,12.91
2023-05-12T00:58:48.936Z,12.93
2023-05-12T00:59:48.911Z,12.90
2023-05-12T01:00:48.954Z,12.91
2023-05-12T01:01:48.913Z,12.93
2023-05-12T01:02:48.938Z,12.91
2023-05-12T01:03:49.075Z,12.91
2023-05-12T01:04:48.838Z,12.91
2023-05-12T01:05:48.823Z,12.90
2023-05-12T01:06:48.816Z,12.90
2023-05-12T01:07:48.836Z,12.90
2023-05-12T01:08:48.816Z,12.91
2023-05-12T01:09:48.778Z,12.91
2023-05-12T01:10:48.764Z,12.90
2023-05-12T01:11:48.738Z,12.90
2023-05-12T01:12:48.756Z,12.91
2023-05-12T01:13:48.714Z,12.90
2023-05-12T01:14:48.702Z,12.93
2023-05-12T01:15:48.692Z,12.91
2023-05-12T01:16:48.698Z,12.88
2023-05-12T01:17:48.868Z,12.90
2023-05-12T01:18:48.735Z,12.90
2023-05-12T01:19:48.654Z,12.90
2023-05-12T01:20:48.626Z,12.91
2023-05-12T01:21:48.615Z,12.91
2023-05-12T01:22:48.612Z,12.88
2023-05-12T01:23:48.585Z,12.90
2023-05-12T01:24:48.585Z,12.90
2023-05-12T01:25:48.550Z,12.90
2023-05-12T01:26:48.565Z,12.90
2023-05-12T01:27:48.556Z,12.91
2023-05-12T01:28:48.545Z,12.87
2023-05-12T01:29:48.528Z,12.86
2023-05-12T01:30:48.525Z,12.86
2023-05-12T01:31:48.558Z,12.86
2023-05-12T01:32:48.527Z,12.87
2023-05-12T01:33:48.475Z,12.86
2023-05-12T01:34:48.436Z,12.87
2023-05-12T01:35:48.427Z,12.87
2023-05-12T01:36:48.428Z,12.84
2023-05-12T01:37:48.393Z,12.84
2023-05-12T01:38:48.385Z,12.84
2023-05-12T01:39:48.406Z,12.86
2023-05-12T01:40:48.352Z,12.86
2023-05-12T01:41:48.372Z,12.88
2023-05-12T01:42:48.338Z,12.86
2023-05-12T01:43:48.327Z,12.86
2023-05-12T01:44:48.321Z,12.83
2023-05-12T01:45:48.296Z,12.81
2023-05-12T01:46:48.427Z,12.80
2023-05-12T01:47:48.277Z,12.80
2023-05-12T01:48:48.257Z,12.78
2023-05-12T01:49:48.237Z,12.80
2023-05-12T01:50:48.214Z,12.80
2023-05-12T01:51:48.218Z,12.78
2023-05-12T01:52:48.189Z,12.75
2023-05-12T01:53:48.163Z,12.78
2023-05-12T01:54:48.168Z,12.78
2023-05-12T01:55:48.160Z,12.80
2023-05-12T01:56:48.149Z,12.78
2023-05-12T01:57:48.131Z,12.76
2023-05-12T01:58:48.130Z,12.75
2023-05-12T01:59:48.106Z,12.75
2023-05-12T02:00:48.076Z,12.73
2023-05-12T02:01:48.148Z,12.72
2023-05-12T02:02:48.089Z,12.72
2023-05-12T02:03:48.128Z,12.72
2023-05-12T02:04:48.041Z,12.72
2023-05-12T02:05:48.025Z,12.72
2023-05-12T02:06:48.018Z,12.70
2023-05-12T02:07:47.988Z,12.72
2023-05-12T02:08:47.970Z,12.72
2023-05-12T02:09:47.976Z,12.73
2023-05-12T02:10:47.965Z,12.72
2023-05-12T02:11:47.950Z,12.72
2023-05-12T02:12:47.916Z,12.69
2023-05-12T02:13:47.910Z,12.68
2023-05-12T02:14:47.889Z,12.68
2023-05-12T02:15:47.908Z,12.68
2023-05-12T02:16:47.899Z,12.66
2023-05-12T02:17:47.883Z,12.66
2023-05-12T02:18:47.989Z,12.66
2023-05-12T02:19:47.840Z,12.66
2023-05-12T02:20:47.834Z,12.66
2023-05-12T02:21:47.802Z,12.68
2023-05-12T02:22:47.802Z,12.68
2023-05-12T02:23:47.784Z,12.65
2023-05-12T02:24:47.781Z,12.66
2023-05-12T02:25:47.777Z,12.69
2023-05-12T02:26:47.729Z,12.68
2023-05-12T02:27:47.720Z,12.69
2023-05-12T02:28:47.741Z,12.69
2023-05-12T02:29:47.724Z,12.66
2023-05-12T02:30:47.677Z,12.65
2023-05-12T02:31:47.704Z,12.65
2023-05-12T02:32:47.774Z,12.66
2023-05-12T02:33:47.652Z,12.66
2023-05-12T02:34:47.645Z,12.68
2023-05-12T02:35:47.613Z,12.66
2023-05-12T02:36:47.614Z,12.66
2023-05-12T02:37:47.581Z,12.65
2023-05-12T02:38:47.580Z,12.66
2023-05-12T02:39:47.602Z,12.66
2023-05-12T02:40:47.556Z,12.65
2023-05-12T02:41:47.532Z,12.65
2023-05-12T02:42:47.531Z,12.65
2023-05-12T02:43:47.526Z,12.66
2023-05-12T02:44:47.511Z,12.65
2023-05-12T02:45:47.526Z,12.62
2023-05-12T02:46:47.458Z,12.62
2023-05-12T02:47:47.504Z,12.62
2023-05-12T02:48:47.450Z,12.61
2023-05-12T02:49:47.442Z,12.61
2023-05-12T02:50:47.408Z,12.61
2023-05-12T02:51:47.402Z,12.62
2023-05-12T02:52:47.382Z,12.57
2023-05-12T02:53:47.392Z,12.57
2023-05-12T02:54:47.330Z,12.55
2023-05-12T02:55:47.345Z,12.58
2023-05-12T02:56:47.335Z,12.57
2023-05-12T02:57:47.349Z,12.61
2023-05-12T02:58:47.330Z,12.61
2023-05-12T02:59:47.308Z,12.61
2023-05-12T03:00:50.205Z,12.61
2023-05-12T03:01:48.284Z,12.58
2023-05-12T03:02:47.329Z,12.55
2023-05-12T03:03:47.390Z,12.57
2023-05-12T03:04:47.227Z,12.57
2023-05-12T03:05:47.218Z,12.55
2023-05-12T03:06:47.192Z,12.55
2023-05-12T03:07:47.204Z,12.55
2023-05-12T03:08:47.165Z,12.54
2023-05-12T03:09:47.182Z,12.53
2023-05-12T03:10:47.139Z,12.53
2023-05-12T03:11:47.150Z,12.51
2023-05-12T03:12:47.144Z,12.53
2023-05-12T03:13:47.113Z,12.51
2023-05-12T03:14:47.103Z,12.53
2023-05-12T03:15:47.075Z,12.51
2023-05-12T03:16:47.101Z,12.51
2023-05-12T03:17:47.089Z,12.54
2023-05-12T03:18:47.091Z,12.53
2023-05-12T03:19:47.032Z,12.55
2023-05-12T03:20:47.009Z,12.53
2023-05-12T03:21:47.013Z,12.53
2023-05-12T03:22:46.982Z,12.53
2023-05-12T03:23:46.965Z,12.53
2023-05-12T03:24:46.955Z,12.51
2023-05-12T03:25:46.949Z,12.51
2023-05-12T03:26:46.962Z,12.50
2023-05-12T03:27:46.916Z,12.48
2023-05-12T03:28:46.898Z,12.48
2023-05-12T03:29:46.898Z,12.47
2023-05-12T03:30:46.872Z,12.50
2023-05-12T03:31:46.994Z,12.47
2023-05-12T03:32:46.843Z,12.45
2023-05-12T03:33:46.823Z,12.44
2023-05-12T03:34:46.811Z,12.44
2023-05-12T03:35:46.812Z,12.44
2023-05-12T03:36:46.798Z,12.45
2023-05-12T03:37:46.776Z,12.47
2023-05-12T03:38:46.744Z,12.44
2023-05-12T03:39:46.758Z,12.40
2023-05-12T03:40:46.759Z,12.39
2023-05-12T03:41:46.715Z,12.39
2023-05-12T03:42:46.719Z,12.39
2023-05-12T03:43:46.704Z,12.40
2023-05-12T03:44:46.679Z,12.39
2023-05-12T03:45:46.680Z,12.39
2023-05-12T03:46:46.701Z,12.40
2023-05-12T03:47:46.780Z,12.37
2023-05-12T03:48:46.627Z,12.39
2023-05-12T03:49:46.619Z,12.39
2023-05-12T03:50:46.608Z,12.43
2023-05-12T03:51:46.579Z,12.40
2023-05-12T03:52:46.570Z,12.40
2023-05-12T03:53:46.559Z,12.40
2023-05-12T03:54:46.536Z,12.43
2023-05-12T03:55:46.550Z,12.43
2023-05-12T03:56:46.525Z,12.39
2023-05-12T03:57:46.497Z,12.43
2023-05-12T03:58:46.502Z,12.37
2023-05-12T03:59:46.498Z,12.37
2023-05-12T04:00:46.477Z,12.36
2023-05-12T04:01:46.530Z,12.36
2023-05-12T04:02:46.630Z,12.35
2023-05-12T04:03:46.494Z,12.35
2023-05-12T04:04:46.425Z,12.35
2023-05-12T04:05:46.435Z,12.35
2023-05-12T04:06:46.383Z,12.37
2023-05-12T04:07:46.385Z,12.39
2023-05-12T04:08:46.362Z,12.40
2023-05-12T04:09:46.363Z,12.40
2023-05-12T04:10:46.331Z,12.40
2023-05-12T04:11:46.323Z,12.40
2023-05-12T04:12:46.297Z,12.40
2023-05-12T04:13:46.302Z,12.43
2023-05-12T04:14:46.290Z,12.45
2023-05-12T04:15:46.263Z,12.45
2023-05-12T04:16:46.316Z,12.45
2023-05-12T04:17:46.325Z,12.45
2023-05-12T04:18:46.292Z,12.44
2023-05-12T04:19:46.268Z,12.44
2023-05-12T04:20:46.199Z,12.47
2023-05-12T04:21:46.186Z,12.48
2023-05-12T04:22:46.169Z,12.47
2023-05-12T04:23:46.164Z,12.48
2023-05-12T04:24:46.244Z,12.48
2023-05-12T04:25:46.151Z,12.48
2023-05-12T04:26:46.133Z,12.50
2023-05-12T04:27:46.218Z,12.53
2023-05-12T04:28:46.102Z,12.54
2023-05-12T04:29:46.094Z,12.54
2023-05-12T04:30:46.058Z,12.54
2023-05-12T04:31:46.068Z,12.55
2023-05-12T04:32:46.145Z,12.54
2023-05-12T04:33:48.220Z,12.57
2023-05-12T04:34:46.018Z,12.55
2023-05-12T04:35:45.996Z,12.57
2023-05-12T04:36:45.992Z,12.61
2023-05-12T04:37:45.986Z,12.61
2023-05-12T04:38:45.977Z,12.63
2023-05-12T04:39:45.969Z,12.65
2023-05-12T04:40:45.951Z,12.66
2023-05-12T04:41:45.915Z,12.66
2023-05-12T04:42:45.907Z,12.68
2023-05-12T04:44:45.871Z,12.69
2023-05-12T04:45:45.913Z,12.72
2023-05-12T04:46:45.847Z,12.72
2023-05-12T04:47:45.862Z,12.73
2023-05-12T04:48:45.834Z,12.70
2023-05-12T04:49:45.815Z,12.73
2023-05-12T04:50:45.793Z,12.73
2023-05-12T04:51:45.806Z,12.75
2023-05-12T04:52:45.780Z,12.76
2023-05-12T04:53:45.779Z,12.73
2023-05-12T04:54:45.750Z,12.73
2023-05-12T04:55:45.730Z,12.75
2023-05-12T04:56:45.726Z,12.75
2023-05-12T04:57:45.710Z,12.76
2023-05-12T04:58:45.745Z,12.76
2023-05-12T04:59:45.701Z,12.78
2023-05-12T05:00:45.683Z,12.78
2023-05-12T05:01:45.887Z,12.78
2023-05-12T05:02:45.702Z,12.76
2023-05-12T05:03:45.865Z,12.80
2023-05-12T05:04:45.637Z,12.80
2023-05-12T05:05:45.618Z,12.80
2023-05-12T05:06:45.584Z,12.80
2023-05-12T05:07:45.788Z,12.80
2023-05-12T05:08:45.563Z,12.78
2023-05-12T05:09:45.566Z,12.80
2023-05-12T05:10:45.536Z,12.76
2023-05-12T05:11:45.518Z,12.80
2023-05-12T05:12:45.513Z,12.78
2023-05-12T05:13:45.504Z,12.80
2023-05-12T05:14:45.482Z,12.81
2023-05-12T05:15:45.583Z,12.81
2023-05-12T05:16:45.454Z,12.83
2023-05-12T05:17:45.504Z,12.80
2023-05-12T05:18:45.456Z,12.81
2023-05-12T05:19:56.179Z,12.83
2023-05-12T05:20:54.623Z,12.83
2023-05-12T05:21:46.489Z,12.83
2023-05-12T05:22:45.379Z,12.86
2023-05-12T05:23:45.361Z,12.86
2023-05-12T05:24:45.328Z,12.84
2023-05-12T05:25:45.312Z,12.84
2023-05-12T05:26:45.311Z,12.84
2023-05-12T05:27:45.326Z,12.83
2023-05-12T05:28:45.288Z,12.86
2023-05-12T05:29:45.271Z,12.84
2023-05-12T05:30:45.270Z,12.84
2023-05-12T05:31:45.314Z,12.83
2023-05-12T05:32:53.036Z,12.83
2023-05-12T05:33:45.503Z,12.83
2023-05-12T05:34:45.434Z,12.84
2023-05-12T05:35:45.200Z,12.84
2023-05-12T05:36:45.414Z,12.86
2023-05-12T05:37:45.169Z,12.86
2023-05-12T05:38:45.152Z,12.88
2023-05-12T05:39:45.130Z,12.87
2023-05-12T05:40:52.170Z,12.88
2023-05-12T05:41:46.140Z,12.88
2023-05-12T05:42:45.110Z,12.90
2023-05-12T05:43:45.086Z,12.90
2023-05-12T05:44:45.103Z,12.87
2023-05-12T05:45:45.055Z,12.88
2023-05-12T05:46:45.128Z,12.87
2023-05-12T05:47:45.119Z,12.88
2023-05-12T05:48:45.063Z,12.86
2023-05-12T05:49:45.009Z,12.84
2023-05-12T05:50:44.982Z,12.87
2023-05-12T05:51:44.987Z,12.88
2023-05-12T05:52:44.974Z,12.87
2023-05-12T05:53:44.944Z,12.88
2023-05-12T05:54:44.935Z,12.91
2023-05-12T05:55:44.932Z,12.88
2023-05-12T05:56:44.927Z,12.88
2023-05-12T05:57:44.930Z,12.87
2023-05-12T05:58:44.885Z,12.86
2023-05-12T05:59:44.875Z,12.87
2023-05-12T06:00:44.960Z,12.86
2023-05-12T06:01:44.883Z,12.87
2023-05-12T06:02:45.114Z,12.84
2023-05-12T06:03:44.870Z,12.84
2023-05-12T06:04:44.813Z,12.86
2023-05-12T06:05:44.842Z,12.86
2023-05-12T06:06:44.775Z,12.88
2023-05-12T06:07:44.756Z,12.88
2023-05-12T06:08:44.745Z,12.91
2023-05-12T06:09:44.726Z,12.90
2023-05-12T06:10:44.736Z,12.91
2023-05-12T06:11:44.702Z,12.93
2023-05-12T06:12:44.697Z,12.90
2023-05-12T06:13:44.746Z,12.91
2023-05-12T06:14:44.673Z,12.90
2023-05-12T06:15:44.686Z,12.88
2023-05-12T06:16:44.702Z,12.90
2023-05-12T06:17:44.637Z,12.90
2023-05-12T06:18:44.675Z,12.88
2023-05-12T06:19:44.606Z,12.90
2023-05-12T06:20:44.602Z,12.88
2023-05-12T06:21:44.565Z,12.90
2023-05-12T06:22:44.557Z,12.91
2023-05-12T06:23:44.536Z,12.91
2023-05-12T06:24:44.561Z,12.95
2023-05-12T06:25:44.618Z,12.98
2023-05-12T06:26:44.504Z,13.01
2023-05-12T06:27:44.530Z,13.01
2023-05-12T06:28:44.469Z,13.02
2023-05-12T06:29:44.470Z,13.03
2023-05-12T06:30:44.458Z,13.05
2023-05-12T06:31:44.452Z,13.05
2023-05-12T06:32:44.504Z,13.06
2023-05-12T06:33:44.436Z,13.09
2023-05-12T06:34:44.413Z,13.09
2023-05-12T06:35:44.375Z,13.16
2023-05-12T06:36:44.391Z,13.16
2023-05-12T06:37:44.383Z,13.21
2023-05-12T06:38:44.372Z,13.26
2023-05-12T06:39:44.343Z,13.33
2023-05-12T06:40:44.316Z,13.37
2023-05-12T06:41:44.299Z,13.40
2023-05-12T06:42:44.444Z,13.46
2023-05-12T06:43:44.304Z,13.50
2023-05-12T06:44:44.322Z,13.50
2023-05-12T06:45:44.279Z,13.55
2023-05-12T06:46:44.307Z,13.61
2023-05-12T06:47:44.240Z,13.61
2023-05-12T06:48:44.237Z,13.61
2023-05-12T06:49:44.197Z,13.61
2023-05-12T06:50:44.173Z,13.60
2023-05-12T06:51:44.192Z,13.64
2023-05-12T06:52:44.158Z,13.71
2023-05-12T06:53:44.272Z,13.71
2023-05-12T06:54:44.122Z,13.70
2023-05-12T06:55:44.128Z,13.65
2023-05-12T06:56:44.106Z,13.65
2023-05-12T06:57:44.090Z,13.68
2023-05-12T06:58:44.096Z,13.71
2023-05-12T06:59:44.059Z,13.75
2023-05-12T07:00:44.040Z,13.80
2023-05-12T07:01:44.476Z,13.86
2023-05-12T07:02:44.122Z,13.87
2023-05-12T07:03:44.088Z,13.91
2023-05-12T07:04:44.044Z,13.89
2023-05-12T07:05:44.025Z,13.91
2023-05-12T07:06:43.961Z,13.97
2023-05-12T07:07:43.978Z,14.04
2023-05-12T07:08:43.943Z,14.12
2023-05-12T07:09:43.921Z,14.15
2023-05-12T07:10:43.937Z,14.16
2023-05-12T07:11:43.897Z,14.16
2023-05-12T07:12:43.912Z,14.16
2023-05-12T07:13:43.862Z,14.20
2023-05-12T07:14:43.865Z,14.28
2023-05-12T07:15:43.873Z,14.31
2023-05-12T07:16:43.842Z,14.37
2023-05-12T07:17:43.873Z,14.34
2023-05-12T07:18:43.906Z,14.36
2023-05-12T07:19:43.786Z,14.28
2023-05-12T07:20:43.783Z,14.26
2023-05-12T07:21:43.774Z,14.33
2023-05-12T07:22:43.753Z,14.33
2023-05-12T07:23:43.734Z,14.31
2023-05-12T07:24:43.722Z,14.33
2023-05-12T07:25:43.843Z,14.34
2023-05-12T07:26:43.706Z,14.34
2023-05-12T07:27:43.662Z,14.38
2023-05-12T07:28:43.670Z,14.43
2023-05-12T07:29:43.643Z,14.43
2023-05-12T07:30:43.632Z,14.40
2023-05-12T07:31:43.663Z,14.41
2023-05-12T07:32:43.769Z,14.41
2023-05-12T07:33:43.580Z,14.44
2023-05-12T07:34:43.595Z,14.43
2023-05-12T07:35:43.587Z,14.44
2023-05-12T07:36:43.555Z,14.48
2023-05-12T07:37:43.540Z,14.41
2023-05-12T07:38:43.534Z,14.40
2023-05-12T07:39:43.513Z,14.38
2023-05-12T07:40:43.523Z,14.38
2023-05-12T07:41:43.533Z,14.37
2023-05-12T07:42:43.514Z,14.31
2023-05-12T07:43:43.463Z,14.31
2023-05-12T07:44:43.454Z,14.33
2023-05-12T07:45:43.435Z,14.33
2023-05-12T07:46:43.442Z,14.37
2023-05-12T07:47:43.453Z,14.43
2023-05-12T07:48:43.396Z,14.53
2023-05-12T07:49:43.407Z,14.55
2023-05-12T07:50:43.383Z,14.59
2023-05-12T07:51:43.351Z,14.63
2023-05-12T07:52:43.346Z,14.63
2023-05-12T07:53:43.307Z,14.66
2023-05-12T07:54:43.316Z,14.71
2023-05-12T07:55:43.316Z,14.74
2023-05-12T07:56:43.293Z,14.79
2023-05-12T07:57:43.267Z,14.78
2023-05-12T07:58:44.132Z,14.77
2023-05-12T07:59:43.267Z,14.78
2023-05-12T08:00:43.236Z,14.77
2023-05-12T08:01:43.250Z,14.78
2023-05-12T08:02:43.329Z,14.77
2023-05-12T08:03:43.344Z,14.77
2023-05-12T08:04:44.424Z,14.77
2023-05-12T08:05:43.167Z,14.74
2023-05-12T08:06:43.156Z,14.79
2023-05-12T08:07:43.131Z,14.77
2023-05-12T08:08:43.125Z,14.73
2023-05-12T08:09:43.121Z,14.74
2023-05-12T08:10:43.097Z,14.74
2023-05-12T08:11:46.175Z,14.78
2023-05-12T08:12:43.078Z,14.79
2023-05-12T08:13:43.074Z,14.85
2023-05-12T08:14:43.190Z,14.81
2023-05-12T08:15:43.066Z,14.85
2023-05-12T08:16:43.048Z,14.90
2023-05-12T08:17:43.017Z,14.93
2023-05-12T08:18:43.096Z,14.99
2023-05-12T08:19:42.957Z,15.00
2023-05-12T08:20:42.954Z,15.04
2023-05-12T08:21:42.944Z,15.04
2023-05-12T08:22:42.939Z,15.08
2023-05-12T08:23:42.943Z,15.04
2023-05-12T08:24:42.920Z,15.04
2023-05-12T08:25:42.888Z,15.02
2023-05-12T08:26:42.878Z,15.04
2023-05-12T08:27:43.007Z,15.05
2023-05-12T08:28:42.854Z,15.04
2023-05-12T08:29:42.879Z,15.00
2023-05-12T08:30:42.857Z,14.99
2023-05-12T08:31:42.941Z,15.00
2023-05-12T08:32:42.828Z,15.02
2023-05-12T08:33:42.777Z,14.99
2023-05-12T08:34:42.776Z,15.00
2023-05-12T08:35:42.751Z,14.97
2023-05-12T08:36:42.793Z,14.94
2023-05-12T08:37:42.740Z,14.94
2023-05-12T08:38:42.712Z,14.94
2023-05-12T08:39:42.707Z,14.93
2023-05-12T08:40:42.694Z,14.94
2023-05-12T08:41:42.689Z,14.93
2023-05-12T08:42:42.683Z,14.92
2023-05-12T08:43:42.652Z,14.90
2023-05-12T08:44:42.636Z,14.90
2023-05-12T08:45:42.607Z,14.90
2023-05-12T08:46:42.679Z,14.89
2023-05-12T08:47:42.652Z,14.90
2023-05-12T08:48:42.592Z,14.90
2023-05-12T08:49:42.578Z,14.93
2023-05-12T08:50:42.559Z,14.93
2023-05-12T08:51:42.560Z,14.96
2023-05-12T08:52:42.533Z,14.99
2023-05-12T08:53:42.515Z,15.05
2023-05-12T08:54:54.930Z,15.10
2023-05-12T08:55:50.151Z,15.14
2023-05-12T08:57:42.465Z,15.18
2023-05-12T08:58:42.670Z,15.19
2023-05-12T08:59:42.431Z,15.19
2023-05-12T09:00:42.639Z,15.23
2023-05-12T09:01:42.474Z,15.23
2023-05-12T09:02:51.969Z,15.27
2023-05-12T09:03:43.378Z,15.30
2023-05-12T09:04:42.444Z,15.32
2023-05-12T09:05:42.449Z,15.35
2023-05-12T09:06:42.440Z,15.37
2023-05-12T09:07:42.329Z,15.39
2023-05-12T09:08:42.665Z,15.43
2023-05-12T09:09:42.416Z,15.44
2023-05-12T09:10:42.298Z,15.45
2023-05-12T09:11:42.318Z,15.51
2023-05-12T09:12:42.328Z,15.52
2023-05-12T09:13:42.240Z,15.54
2023-05-12T09:14:42.228Z,15.55
2023-05-12T09:15:42.232Z,15.57
2023-05-12T09:16:42.225Z,15.57
2023-05-12T09:17:42.220Z,15.60
2023-05-12T09:18:42.213Z,15.63
2023-05-12T09:19:42.173Z,15.65
2023-05-12T09:20:42.195Z,15.66
2023-05-12T09:21:42.405Z,15.65
2023-05-12T09:22:42.132Z,15.63
2023-05-12T09:23:42.121Z,15.66
2023-05-12T09:24:42.109Z,15.63
2023-05-12T09:25:42.125Z,15.66
2023-05-12T09:26:42.082Z,15.69
2023-05-12T09:27:42.052Z,15.70
2023-05-12T09:28:42.045Z,15.70
2023-05-12T09:29:51.571Z,15.72
2023-05-12T09:30:43.013Z,15.73
2023-05-12T09:31:42.085Z,15.78
2023-05-12T09:32:42.210Z,15.84
2023-05-12T09:33:41.997Z,15.87
2023-05-12T09:34:41.972Z,15.90
2023-05-12T09:35:41.963Z,15.94
2023-05-12T09:36:41.948Z,16.00
2023-05-12T09:37:41.938Z,16.03
2023-05-12T09:38:41.905Z,16.05
2023-05-12T09:39:41.900Z,16.06
2023-05-12T09:40:41.991Z,16.09
2023-05-12T09:41:41.875Z,16.10
2023-05-12T09:42:41.860Z,16.13
2023-05-12T09:43:41.868Z,16.12
2023-05-12T09:44:41.823Z,16.09
2023-05-12T09:45:41.830Z,16.08
2023-05-12T09:46:41.779Z,16.09
2023-05-12T09:47:41.817Z,16.12
2023-05-12T09:48:41.897Z,16.16
2023-05-12T09:49:41.823Z,16.18
2023-05-12T09:50:47.256Z,16.24
2023-05-12T09:51:42.719Z,16.29
2023-05-12T09:52:41.727Z,16.31
2023-05-12T09:53:41.741Z,16.32
2023-05-12T09:54:41.753Z,16.36
2023-05-12T09:55:41.688Z,16.36
2023-05-12T09:56:41.655Z,16.37
2023-05-12T09:57:41.666Z,16.36
2023-05-12T09:58:41.685Z,16.37
2023-05-12T09:59:43.589Z,16.40
2023-05-12T10:01:06.022Z,16.44
2023-05-12T10:01:42.659Z,16.43
2023-05-12T10:02:41.594Z,16.44
2023-05-12T10:03:41.598Z,16.43
2023-05-12T10:04:41.752Z,16.43
2023-05-12T10:05:41.543Z,16.44
2023-05-12T10:06:41.532Z,16.44
2023-05-12T10:07:41.546Z,16.44
2023-05-12T10:08:41.513Z,16.41
2023-05-12T10:09:41.485Z,16.40
2023-05-12T10:10:41.473Z,16.40
2023-05-12T10:11:41.464Z,16.37
2023-05-12T10:12:41.450Z,16.39
2023-05-12T10:13:41.457Z,16.40
2023-05-12T10:14:41.461Z,16.41
2023-05-12T10:15:41.459Z,16.41
2023-05-12T10:16:41.627Z,16.39
2023-05-12T10:17:41.603Z,16.37
2023-05-12T10:18:42.329Z,16.36
2023-05-12T10:19:42.437Z,16.36
2023-05-12T10:20:41.612Z,16.37
2023-05-12T10:21:41.353Z,16.39
2023-05-12T10:22:41.427Z,16.41
2023-05-12T10:23:41.373Z,16.46
2023-05-12T10:24:41.336Z,16.49
2023-05-12T10:25:41.358Z,16.51
2023-05-12T10:26:41.274Z,16.59
2023-05-12T10:27:41.448Z,16.61
2023-05-12T10:28:41.235Z,16.61
2023-05-12T10:29:41.231Z,16.62
2023-05-12T10:30:41.208Z,16.59
2023-05-12T10:31:41.283Z,16.58
2023-05-12T10:32:41.206Z,16.57
2023-05-12T10:33:41.162Z,16.54
2023-05-12T10:34:41.163Z,16.55
2023-05-12T10:35:41.136Z,16.51
2023-05-12T10:36:41.138Z,16.49
2023-05-12T10:37:41.110Z,16.43
2023-05-12T10:38:41.099Z,16.36
2023-05-12T10:39:41.088Z,16.24
2023-05-12T10:40:41.072Z,16.17
2023-05-12T10:41:41.067Z,16.09
2023-05-12T10:42:41.052Z,16.06
2023-05-12T10:43:41.026Z,15.98
2023-05-12T10:44:41.046Z,15.92
2023-05-12T10:45:41.040Z,15.90
2023-05-12T10:46:41.061Z,15.91
2023-05-12T10:47:41.058Z,15.92
2023-05-12T10:48:40.970Z,15.98
2023-05-12T10:49:40.936Z,16.03
2023-05-12T10:50:40.938Z,16.09
2023-05-12T10:51:40.918Z,16.13
2023-05-12T10:52:40.922Z,16.22
2023-05-12T10:53:48.225Z,16.28
2023-05-12T10:54:41.893Z,16.36
2023-05-12T10:55:41.050Z,16.47
2023-05-12T10:56:41.197Z,16.61
2023-05-12T10:57:41.121Z,16.69
2023-05-12T10:58:41.118Z,16.74
2023-05-12T10:59:41.157Z,16.76
2023-05-12T11:00:41.329Z,16.77
2023-05-12T11:01:41.452Z,16.74
2023-05-12T11:02:41.834Z,16.72
2023-05-12T11:03:42.073Z,16.73
2023-05-12T11:04:40.985Z,16.73
2023-05-12T11:05:40.886Z,16.72
2023-05-12T11:06:41.084Z,16.76
2023-05-12T11:07:41.836Z,16.82
2023-05-12T11:08:40.970Z,16.92
2023-05-12T11:09:47.974Z,16.98
2023-05-12T11:10:41.706Z,17.04
2023-05-12T11:11:40.855Z,17.07
2023-05-12T11:12:40.647Z,17.05
2023-05-12T11:13:40.726Z,16.99
2023-05-12T11:14:40.747Z,16.95
2023-05-12T11:15:40.594Z,16.92
2023-05-12T11:16:40.603Z,16.92
2023-05-12T11:17:40.724Z,16.89
2023-05-12T11:18:40.579Z,16.87
2023-05-12T11:19:40.609Z,16.86
2023-05-12T11:20:40.643Z,16.84
2023-05-12T11:21:40.516Z,16.80
2023-05-12T11:22:40.535Z,16.76
2023-05-12T11:23:40.504Z,16.69
2023-05-12T11:24:40.492Z,16.66
2023-05-12T11:25:42.182Z,16.64
2023-05-12T11:26:40.451Z,16.68
2023-05-12T11:27:40.432Z,16.76
2023-05-12T11:28:40.457Z,16.82
2023-05-12T11:29:41.366Z,16.86
2023-05-12T11:30:40.393Z,16.91
2023-05-12T11:31:40.434Z,16.91
2023-05-12T11:32:40.526Z,16.89
2023-05-12T11:33:40.366Z,16.89
2023-05-12T11:34:40.334Z,16.89
2023-05-12T11:35:40.336Z,16.89
2023-05-12T11:36:40.325Z,16.87
2023-05-12T11:37:40.325Z,16.99
2023-05-12T11:38:40.293Z,16.99
2023-05-12T11:39:40.294Z,17.07
2023-05-12T11:40:40.267Z,17.19
2023-05-12T11:41:40.280Z,17.28
2023-05-12T11:42:40.250Z,17.34
2023-05-12T11:43:40.242Z,17.37
2023-05-12T11:44:40.210Z,17.37
2023-05-12T11:45:40.228Z,17.41
2023-05-12T11:46:40.198Z,17.53
2023-05-12T11:47:40.229Z,17.53
2023-05-12T11:48:40.151Z,17.50
2023-05-12T11:49:40.153Z,17.44
2023-05-12T11:50:40.136Z,17.46
2023-05-12T11:51:40.141Z,17.42
2023-05-12T11:52:40.103Z,17.41
2023-05-12T11:53:40.093Z,17.39
2023-05-12T11:54:40.235Z,17.39
2023-05-12T11:55:40.052Z,17.42
2023-05-12T11:56:40.057Z,17.39
2023-05-12T11:57:40.035Z,17.37
2023-05-12T11:58:40.029Z,17.41
2023-05-12T11:59:40.019Z,17.47
2023-05-12T12:00:40.087Z,17.49
2023-05-12T12:01:40.010Z,17.57
2023-05-12T12:02:40.101Z,17.57
2023-05-12T12:03:40.032Z,17.57
2023-05-12T12:04:40.201Z,17.57
2023-05-12T12:05:40.122Z,17.57
2023-05-12T12:06:39.913Z,17.56
2023-05-12T12:07:39.933Z,17.54
2023-05-12T12:08:39.918Z,17.54
2023-05-12T12:09:39.878Z,17.54
2023-05-12T12:10:39.895Z,17.54
2023-05-12T12:11:39.920Z,17.54
2023-05-12T12:12:39.832Z,17.50
2023-05-12T12:13:39.871Z,17.49
2023-05-12T12:14:39.831Z,17.44
2023-05-12T12:15:39.847Z,17.42
2023-05-12T12:16:39.980Z,17.41
2023-05-12T12:17:40.517Z,17.39
2023-05-12T12:18:39.774Z,17.37
2023-05-12T12:19:39.789Z,17.35
2023-05-12T12:20:39.728Z,17.31
2023-05-12T12:21:39.823Z,17.28
2023-05-12T12:22:39.714Z,17.30
2023-05-12T12:23:50.234Z,17.28
2023-05-12T12:24:40.689Z,17.22
2023-05-12T12:25:39.668Z,17.13
2023-05-12T12:26:39.748Z,17.07
2023-05-12T12:27:39.637Z,16.99
2023-05-12T12:28:39.742Z,16.94
2023-05-12T12:29:39.693Z,16.86
2023-05-12T12:30:39.608Z,16.79
2023-05-12T12:31:39.653Z,16.69
2023-05-12T12:32:39.632Z,16.62
2023-05-12T12:33:39.598Z,16.58
2023-05-12T12:34:39.625Z,16.51
2023-05-12T12:35:39.771Z,16.46
2023-05-12T12:36:39.520Z,16.36
2023-05-12T12:37:39.525Z,16.26
2023-05-12T12:38:39.591Z,16.22
2023-05-12T12:39:39.643Z,16.16
2023-05-12T12:40:39.593Z,16.10
2023-05-12T12:41:39.570Z,16.09
2023-05-12T12:42:39.598Z,16.06
2023-05-12T12:43:39.645Z,16.10
2023-05-12T12:44:39.686Z,16.09
2023-05-12T12:45:39.438Z,16.10
2023-05-12T12:46:39.433Z,16.13
2023-05-12T12:47:39.411Z,16.16
2023-05-12T12:48:40.259Z,16.16
2023-05-12T12:49:39.558Z,16.18
2023-05-12T12:50:39.357Z,16.18
2023-05-12T12:51:46.222Z,16.17
2023-05-12T12:52:40.311Z,16.21
2023-05-12T12:53:39.294Z,16.21
2023-05-12T12:54:39.463Z,16.21